Time;durP1;ratioP1;P1;durP2;ratioP2;P2;SDS_P1;SDS_P2;PMS_P1;PMS_P2;Temp;Humidity;BMP_temperature;BMP_pressure;BME280_temperature;BME280_humidity;BME280_pressure;Samples;Min_cycle;Max_cycle;Signal;HPM_P1;HPM_P2
2023/01/22 00:01:03;;;;;;;13.13;7.87;;;;;;;0.66;100.00;100585.09;1451779;90;22503;-86
2023/01/22 00:03:30;;;;;;;9.50;7.13;;;;;;;0.70;100.00;100592.31;1446355;90;21695;-86
2023/01/22 00:05:56;;;;;;;10.03;6.07;;;;;;;0.75;100.00;100593.75;1451722;90;21593;-85
2023/01/22 00:08:22;;;;;;;11.53;7.67;;;;;;;0.82;100.00;100591.19;1442975;90;21517;-86
2023/01/22 00:10:59;;;;;;;10.13;7.70;;;;;;;0.86;100.00;100591.42;1449968;90;21655;-85
2023/01/22 00:13:26;;;;;;;13.50;7.80;;;;;;;0.89;100.00;100582.14;1443797;90;21779;-83
2023/01/22 00:15:53;;;;;;;12.67;7.70;;;;;;;0.92;100.00;100577.66;1447018;90;21482;-86
2023/01/22 00:18:19;;;;;;;11.77;6.63;;;;;;;0.88;100.00;100572.62;1450001;90;21764;-86
2023/01/22 00:20:50;;;;;;;13.90;7.83;;;;;;;0.86;100.00;100569.27;1444778;90;22525;-87
2023/01/22 00:23:17;;;;;;;10.25;6.55;;;;;;;0.84;100.00;100567.67;1449058;90;21776;-85
2023/01/22 00:25:43;;;;;;;10.40;6.40;;;;;;;0.88;100.00;100560.05;1440759;90;21525;-84
2023/01/22 00:28:11;;;;;;;13.17;7.07;;;;;;;0.92;100.00;100562.02;1433223;90;21616;-85
2023/01/22 00:30:38;;;;;;;9.63;6.47;;;;;;;0.92;100.00;100556.81;1447605;90;21667;-85
2023/01/22 00:33:05;;;;;;;12.43;7.70;;;;;;;0.93;99.91;100563.73;1446609;90;22717;-86
2023/01/22 00:35:33;;;;;;;14.03;7.10;;;;;;;0.99;100.00;100571.21;1449240;90;21670;-87
2023/01/22 00:38:00;;;;;;;16.33;9.27;;;;;;;0.99;100.00;100575.13;1444864;90;21757;-87
2023/01/22 00:40:26;;;;;;;9.50;6.77;;;;;;;0.95;99.57;100584.88;1443694;90;21827;-84
2023/01/22 00:42:52;;;;;;;12.43;7.30;;;;;;;0.98;99.68;100586.45;1447050;90;22621;-86
2023/01/22 00:45:18;;;;;;;11.47;7.17;;;;;;;0.98;99.46;100592.97;1450876;90;22777;-84
2023/01/22 00:47:44;;;;;;;12.30;7.03;;;;;;;1.03;99.32;100594.88;1452962;90;21628;-86
2023/01/22 00:50:11;;;;;;;11.70;7.63;;;;;;;1.02;99.25;100591.89;1420649;90;21612;-86
2023/01/22 00:52:37;;;;;;;10.07;6.43;;;;;;;1.06;98.95;100571.25;1445657;90;22112;-84
2023/01/22 00:55:05;;;;;;;12.20;7.73;;;;;;;0.99;98.60;100560.78;1448395;90;21889;-83
2023/01/22 00:57:31;;;;;;;13.43;7.53;;;;;;;1.07;99.18;100571.64;1443059;90;21659;-85
2023/01/22 00:59:58;;;;;;;14.33;7.83;;;;;;;1.09;99.15;100569.77;1448241;90;21509;-84
2023/01/22 01:02:24;;;;;;;11.67;6.73;;;;;;;1.12;99.26;100573.52;1438314;90;21782;-84
2023/01/22 01:04:50;;;;;;;15.87;7.47;;;;;;;1.15;99.16;100581.16;1444852;90;21950;-84
2023/01/22 01:07:16;;;;;;;11.20;6.80;;;;;;;1.20;99.20;100592.19;1448585;90;21570;-83
2023/01/22 01:09:43;;;;;;;12.50;7.73;;;;;;;1.11;98.99;100567.93;1444361;90;21496;-84
2023/01/22 01:12:09;;;;;;;12.00;7.40;;;;;;;1.21;98.00;100589.11;1446754;90;21726;-83
2023/01/22 01:14:36;;;;;;;12.93;8.27;;;;;;;1.22;98.21;100594.73;1445584;90;22612;-81
2023/01/22 01:17:03;;;;;;;12.27;7.17;;;;;;;1.22;98.21;100594.73;1447660;90;21991;-82
2023/01/22 01:19:29;;;;;;;11.27;7.60;;;;;;;1.24;98.49;100598.94;1441835;90;22093;-82
2023/01/22 01:21:55;;;;;;;10.60;7.10;;;;;;;1.26;98.18;100600.98;1449235;90;21744;-82
2023/01/22 01:24:21;;;;;;;11.00;7.30;;;;;;;1.26;98.18;100600.98;1452113;90;21946;-82
2023/01/22 01:26:47;;;;;;;19.50;8.50;;;;;;;1.29;98.51;100599.50;1449856;90;22554;-82
2023/01/22 01:29:14;;;;;;;9.30;6.30;;;;;;;1.31;98.46;100593.75;1438543;90;21775;-81
2023/01/22 01:31:41;;;;;;;9.80;6.90;;;;;;;1.33;98.00;100585.39;1444150;90;21699;-81
2023/01/22 01:34:07;;;;;;;10.60;7.57;;;;;;;1.38;98.37;100590.80;1447035;90;21766;-81
2023/01/22 01:36:34;;;;;;;19.53;8.47;;;;;;;1.37;98.08;100584.75;1443944;90;21725;-81
2023/01/22 01:39:02;;;;;;;12.53;7.90;;;;;;;1.35;98.04;100588.77;1441515;90;21607;-82
2023/01/22 01:41:28;;;;;;;15.00;8.57;;;;;;;1.34;98.12;100585.75;1452375;90;21863;-82
2023/01/22 01:44:15;;;;;;;10.47;6.67;;;;;;;1.32;98.21;100593.28;1444863;90;21759;-82
2023/01/22 01:46:52;;;;;;;12.90;7.33;;;;;;;1.30;97.73;100593.38;1449910;90;21791;-82
2023/01/22 01:49:39;;;;;;;12.53;6.93;;;;;;;1.30;98.19;100585.56;1444690;90;21818;-80
2023/01/22 01:52:10;;;;;;;13.37;8.10;;;;;;;1.30;98.19;100585.56;1448503;90;21787;-83
2023/01/22 01:54:39;;;;;;;12.80;8.20;;;;;;;1.24;97.05;100580.69;1457720;90;22310;-82
2023/01/22 01:57:10;;;;;;;10.20;6.50;;;;;;;1.29;97.25;100591.68;1451009;90;21304;-83
2023/01/22 01:59:37;;;;;;;;;;;;;;;1.26;97.45;100582.72;1457973;90;21844;-83
2023/01/22 02:02:05;;;;;;;16.23;9.53;;;;;;;1.22;97.20;100585.13;1448804;90;20301;-83
2023/01/22 02:04:31;;;;;;;11.47;8.33;;;;;;;1.21;97.42;100591.28;1453031;90;21770;-83
2023/01/22 02:06:57;;;;;;;13.63;8.70;;;;;;;1.21;97.42;100591.28;1428606;90;21666;-83
2023/01/22 02:09:23;;;;;;;11.70;7.20;;;;;;;1.17;97.19;100596.27;1445710;90;22708;-83
2023/01/22 02:11:52;;;;;;;12.87;9.03;;;;;;;1.12;97.19;100595.67;1453702;90;21658;-82
2023/01/22 02:14:23;;;;;;;12.37;7.40;;;;;;;1.10;97.04;100581.44;1447988;90;21804;-82
2023/01/22 02:17:08;;;;;;;;;;;;;;;1.07;97.11;100574.25;1450059;90;21646;-83
2023/01/22 02:19:34;;;;;;;12.53;7.73;;;;;;;0.95;97.59;100565.33;1446756;90;20405;-83
2023/01/22 02:22:00;;;;;;;12.93;8.47;;;;;;;0.88;98.67;100563.50;1449370;90;21705;-82
2023/01/22 02:24:30;;;;;;;10.33;6.10;;;;;;;0.87;98.93;100567.03;1446920;90;21747;-83
2023/01/22 02:26:56;;;;;;;14.33;7.73;;;;;;;0.84;99.37;100563.30;1448966;90;21563;-81
2023/01/22 02:29:25;;;;;;;10.87;7.20;;;;;;;0.91;99.41;100563.80;1448699;90;22539;-82
2023/01/22 02:31:50;;;;;;;13.57;8.00;;;;;;;0.95;99.25;100554.04;1449736;90;21741;-81
2023/01/22 02:34:17;;;;;;;9.97;6.20;;;;;;;0.99;99.43;100551.66;1453045;90;21962;-80
2023/01/22 02:36:43;;;;;;;11.57;7.97;;;;;;;1.04;98.79;100560.08;1446092;90;21540;-81
2023/01/22 02:39:09;;;;;;;12.33;8.43;;;;;;;1.07;98.76;100556.00;1447806;90;21719;-81
2023/01/22 02:41:35;;;;;;;14.97;9.03;;;;;;;1.08;98.63;100563.72;1444067;90;21787;-82
2023/01/22 02:44:02;;;;;;;11.67;7.30;;;;;;;1.11;99.01;100561.41;1442732;90;21615;-84
2023/01/22 02:46:29;;;;;;;11.43;7.63;;;;;;;1.17;98.74;100569.36;1448337;90;21563;-86
2023/01/22 02:48:55;;;;;;;11.77;7.80;;;;;;;1.20;98.86;100575.71;1446378;90;21755;-86
2023/01/22 02:51:21;;;;;;;12.37;7.93;;;;;;;1.23;98.38;100580.29;1444726;90;22579;-85
2023/01/22 02:53:48;;;;;;;12.80;8.43;;;;;;;1.26;98.02;100576.20;1434085;90;21736;-83
2023/01/22 02:56:14;;;;;;;13.33;8.23;;;;;;;1.29;98.02;100576.03;1449440;90;21742;-83
2023/01/22 02:58:40;;;;;;;11.07;6.93;;;;;;;1.31;97.72;100589.00;1452369;90;22627;-82
2023/01/22 03:01:19;;;;;;;12.40;8.17;;;;;;;1.28;97.42;100593.08;1449154;90;21858;-84
2023/01/22 03:03:49;;;;;;;12.60;8.13;;;;;;;1.32;97.78;100589.37;1445696;90;22090;-83
2023/01/22 03:06:20;;;;;;;13.87;9.63;;;;;;;1.33;97.92;100589.30;1438168;90;21806;-82
2023/01/22 03:08:44;;;;;;;14.47;8.77;;;;;;;1.35;98.09;100584.85;1448496;90;21783;-84
2023/01/22 03:11:11;;;;;;;11.63;7.87;;;;;;;1.31;98.12;100588.53;1445298;90;21619;-84
2023/01/22 03:21:52;;;;;;;12.17;8.03;;;;;;;1.32;98.05;100578.94;1444591;90;21691;-83
2023/01/22 03:24:18;;;;;;;14.37;8.43;;;;;;;1.33;98.04;100572.81;1446926;90;21780;-84
2023/01/22 03:26:45;;;;;;;13.03;8.70;;;;;;;1.27;98.08;100558.82;1444635;90;21857;-84
2023/01/22 03:29:11;;;;;;;14.37;7.53;;;;;;;1.25;98.22;100552.84;1445927;90;21732;-84
2023/01/22 03:31:37;;;;;;;11.93;8.13;;;;;;;1.24;98.24;100553.31;1446437;90;21790;-83
2023/01/22 03:34:04;;;;;;;15.80;8.37;;;;;;;1.19;98.55;100552.72;1446006;90;21895;-82
2023/01/22 03:36:30;;;;;;;13.83;8.40;;;;;;;1.19;98.55;100552.72;1445796;90;21914;-87
2023/01/22 03:38:56;;;;;;;15.50;8.70;;;;;;;1.20;98.32;100550.47;1446068;90;21760;-87
2023/01/22 03:41:22;;;;;;;14.83;8.70;;;;;;;1.18;98.33;100540.62;1441404;90;22688;-87
2023/01/22 03:43:48;;;;;;;13.27;8.30;;;;;;;1.13;98.42;100542.63;1447127;90;21836;-87
2023/01/22 03:46:18;;;;;;;12.20;8.30;;;;;;;1.13;98.25;100547.38;1445443;90;21665;-87
2023/01/22 03:48:44;;;;;;;15.77;9.20;;;;;;;1.05;98.91;100553.94;1444296;90;21604;-86
2023/01/22 03:51:14;;;;;;;13.73;7.77;;;;;;;1.05;98.62;100548.72;1449924;90;21901;-87
2023/01/22 03:53:42;;;;;;;12.80;8.23;;;;;;;1.01;98.63;100551.96;1444970;90;21768;-87
2023/01/22 03:56:12;;;;;;;12.77;8.50;;;;;;;1.00;99.03;100552.87;1453113;90;22543;-86
2023/01/22 03:58:39;;;;;;;15.93;9.10;;;;;;;0.99;99.12;100560.78;1447655;90;21557;-82
2023/01/22 04:01:09;;;;;;;14.30;8.43;;;;;;;0.98;99.03;100548.66;1445995;90;22287;-83
2023/01/22 04:03:36;;;;;;;15.07;9.33;;;;;;;0.99;98.91;100551.66;1454974;90;21631;-82
2023/01/22 04:06:04;;;;;;;13.10;8.83;;;;;;;0.94;98.95;100547.16;1452403;90;22214;-87
2023/01/22 04:08:33;;;;;;;13.80;9.37;;;;;;;0.88;99.14;100537.44;1446246;90;21908;-87
2023/01/22 04:11:01;;;;;;;13.17;7.63;;;;;;;0.84;99.49;100530.72;1446432;90;21563;-88
2023/01/22 04:13:29;;;;;;;15.67;9.70;;;;;;;0.80;99.43;100533.09;1447428;90;23040;-88
2023/01/22 04:15:55;;;;;;;11.13;8.27;;;;;;;0.81;99.40;100541.31;1441072;90;21688;-88
2023/01/22 04:18:21;;;;;;;13.73;9.43;;;;;;;0.78;99.70;100559.72;1447700;90;21588;-84
2023/01/22 04:20:49;;;;;;;11.93;8.17;;;;;;;0.81;99.55;100563.46;1446133;90;22108;-84
2023/01/22 04:23:15;;;;;;;14.30;8.70;;;;;;;0.82;99.37;100576.86;1455477;90;21824;-85
2023/01/22 04:25:43;;;;;;;15.77;8.83;;;;;;;0.82;99.27;100575.55;1449038;90;21644;-83
2023/01/22 04:28:10;;;;;;;15.53;9.40;;;;;;;0.83;99.24;100585.04;1435551;90;22607;-84
2023/01/22 04:30:38;;;;;;;13.30;8.87;;;;;;;0.84;99.08;100584.61;1445334;90;22526;-85
2023/01/22 04:33:04;;;;;;;13.43;8.67;;;;;;;0.85;98.88;100587.58;1443221;90;21570;-84
2023/01/22 04:35:31;;;;;;;15.30;8.80;;;;;;;0.88;98.72;100592.16;1449514;90;21762;-84
2023/01/22 04:37:58;;;;;;;14.73;8.40;;;;;;;0.83;98.62;100594.16;1438732;90;22613;-84
2023/01/22 04:40:24;;;;;;;15.43;9.27;;;;;;;0.81;98.70;100603.84;1447480;90;21511;-84
2023/01/22 04:42:51;;;;;;;17.43;11.10;;;;;;;0.82;98.68;100610.73;1445389;90;21714;-84
2023/01/22 04:45:18;;;;;;;11.57;7.90;;;;;;;0.81;98.70;100607.75;1418811;90;22674;-84
2023/01/22 04:47:47;;;;;;;14.87;9.70;;;;;;;0.79;98.94;100608.28;1450137;90;21701;-85
2023/01/22 04:50:19;;;;;;;12.60;8.17;;;;;;;0.80;98.91;100619.08;1446098;90;21465;-87
2023/01/22 04:52:45;;;;;;;13.77;9.30;;;;;;;0.83;98.94;100627.20;1449814;90;21531;-87
2023/01/22 04:55:12;;;;;;;13.33;8.67;;;;;;;0.86;98.77;100622.70;1422571;90;22751;-84
2023/01/22 04:57:38;;;;;;;14.17;8.90;;;;;;;0.85;98.47;100634.48;1449055;90;21736;-85
2023/01/22 05:00:09;;;;;;;14.63;9.87;;;;;;;0.88;98.40;100634.32;1438576;90;21623;-85
2023/01/22 05:02:35;;;;;;;13.72;7.97;;;;;;;0.87;98.34;100627.44;1439133;90;21630;-88
2023/01/22 05:05:02;;;;;;;14.33;8.20;;;;;;;0.82;98.12;100625.53;1445505;90;21378;-87
2023/01/22 05:07:28;;;;;;;13.87;9.40;;;;;;;0.74;98.43;100628.98;1449006;90;21640;-87
2023/01/22 05:09:54;;;;;;;14.53;9.10;;;;;;;0.71;98.68;100629.16;1449901;90;21744;-84
2023/01/22 05:12:20;;;;;;;15.20;9.40;;;;;;;0.70;98.80;100634.83;1450953;90;21723;-87
2023/01/22 05:14:46;;;;;;;14.40;9.30;;;;;;;0.68;98.74;100634.05;1448183;90;21755;-86
2023/01/22 05:17:12;;;;;;;15.77;9.43;;;;;;;0.66;98.92;100640.66;1447240;90;21496;-88
2023/01/22 05:19:38;;;;;;;18.73;9.33;;;;;;;0.70;98.66;100637.90;1442245;90;22428;-83
2023/01/22 05:22:05;;;;;;;14.23;9.80;;;;;;;0.70;98.58;100641.34;1449796;90;21617;-82
2023/01/22 05:24:31;;;;;;;13.57;8.60;;;;;;;0.66;99.10;100650.22;1449578;90;21905;-87
2023/01/22 05:26:57;;;;;;;14.27;9.00;;;;;;;0.66;98.89;100647.61;1442329;90;21461;-86
2023/01/22 05:29:25;;;;;;;13.43;8.23;;;;;;;0.63;99.10;100643.86;1452497;90;21729;-86
2023/01/22 05:31:55;;;;;;;13.17;8.20;;;;;;;0.62;99.26;100650.00;1446274;90;21735;-86
2023/01/22 05:34:22;;;;;;;13.77;9.47;;;;;;;0.60;99.36;100655.28;1447349;90;22542;-86
2023/01/22 05:36:49;;;;;;;13.33;8.43;;;;;;;0.62;99.42;100656.52;1445562;90;21610;-87
2023/01/22 05:39:16;;;;;;;13.67;9.07;;;;;;;0.66;99.36;100667.16;1445082;90;21611;-86
2023/01/22 05:41:43;;;;;;;15.37;9.17;;;;;;;0.71;99.35;100671.67;1448489;90;22457;-87
2023/01/22 05:44:12;;;;;;;20.87;10.50;;;;;;;0.73;99.26;100677.66;1447341;90;21673;-86
2023/01/22 05:46:38;;;;;;;17.00;10.03;;;;;;;0.73;99.23;100686.77;1438820;90;22591;-86
2023/01/22 05:49:06;;;;;;;14.27;9.13;;;;;;;0.75;99.19;100691.89;1445250;90;21727;-86
2023/01/22 05:51:33;;;;;;;13.33;8.73;;;;;;;0.76;99.23;100690.52;1423288;90;21580;-86
2023/01/22 05:53:59;;;;;;;12.57;9.07;;;;;;;0.79;99.17;100683.84;1448576;90;21706;-86
2023/01/22 05:56:25;;;;;;;17.10;9.23;;;;;;;0.82;99.13;100703.23;1434068;90;21605;-84
2023/01/22 05:58:52;;;;;;;14.73;9.87;;;;;;;0.84;99.03;100705.77;1445972;90;21571;-84
2023/01/22 06:01:18;;;;;;;15.97;10.77;;;;;;;0.86;98.99;100707.81;1448585;90;22125;-82
2023/01/22 06:03:44;;;;;;;17.17;10.47;;;;;;;0.90;98.78;100714.11;1441293;90;21743;-88
2023/01/22 06:06:13;;;;;;;13.97;8.93;;;;;;;0.90;98.81;100708.90;1453253;90;21719;-89
2023/01/22 06:08:39;;;;;;;15.97;9.27;;;;;;;0.88;98.79;100710.73;1443884;90;22599;-87
2023/01/22 06:11:15;;;;;;;14.53;9.73;;;;;;;0.83;99.02;100704.91;1445658;90;21625;-87
2023/01/22 06:13:42;;;;;;;16.57;9.00;;;;;;;0.89;99.02;100708.53;1443549;90;21583;-87
2023/01/22 06:16:09;;;;;;;15.13;9.00;;;;;;;0.93;99.18;100707.06;1445059;90;21706;-86
2023/01/22 06:18:35;;;;;;;15.57;9.77;;;;;;;0.97;98.99;100712.48;1449497;90;22515;-85
2023/01/22 06:21:05;;;;;;;16.80;8.43;;;;;;;1.02;98.88;100720.45;1446522;90;21627;-84
2023/01/22 06:23:32;;;;;;;17.87;9.73;;;;;;;1.04;98.38;100713.88;1416108;90;21775;-87
2023/01/22 06:26:01;;;;;;;14.77;9.43;;;;;;;1.04;98.17;100716.01;1448169;90;22709;-87
2023/01/22 06:28:27;;;;;;;15.10;9.83;;;;;;;1.07;98.10;100721.53;1446809;90;21781;-86
2023/01/22 06:31:07;;;;;;;22.60;11.30;;;;;;;1.08;98.11;100721.90;1450136;90;21680;-86
2023/01/22 06:33:35;;;;;;;16.77;10.80;;;;;;;1.08;98.17;100731.86;1445881;90;21596;-86
2023/01/22 06:36:02;;;;;;;18.20;11.50;;;;;;;1.11;98.30;100736.91;1446487;90;21780;-87
2023/01/22 06:38:30;;;;;;;15.67;10.67;;;;;;;1.16;98.23;100752.80;1443485;90;21689;-86
2023/01/22 06:40:59;;;;;;;14.33;9.03;;;;;;;1.23;98.12;100765.41;1434429;90;21710;-87
2023/01/22 06:43:27;;;;;;;22.27;9.33;;;;;;;1.27;97.71;100766.96;1442066;90;21664;-85
2023/01/22 06:45:54;;;;;;;19.70;10.40;;;;;;;1.27;96.95;100764.82;1441373;90;21801;-84
2023/01/22 06:48:21;;;;;;;17.70;9.83;;;;;;;1.33;97.45;100767.94;1446897;90;21607;-87
2023/01/22 06:50:47;;;;;;;13.40;8.97;;;;;;;1.36;97.53;100766.94;1441928;90;21740;-89
2023/01/22 06:53:13;;;;;;;15.63;10.20;;;;;;;1.36;97.29;100756.50;1450413;90;21912;-88
2023/01/22 06:55:39;;;;;;;11.03;7.87;;;;;;;1.43;97.19;100766.14;1429100;90;21888;-86
2023/01/22 06:58:06;;;;;;;12.93;7.90;;;;;;;1.38;95.71;100762.46;1423332;90;21791;-87
2023/01/22 07:00:32;;;;;;;13.17;8.80;;;;;;;1.38;95.71;100762.46;1446422;90;22045;-85
2023/01/22 07:02:58;;;;;;;15.63;10.73;;;;;;;1.44;96.07;100758.25;1447003;90;22010;-86
2023/01/22 07:05:26;;;;;;;18.63;9.53;;;;;;;1.49;96.28;100760.59;1439257;90;21836;-85
2023/01/22 07:07:53;;;;;;;14.23;9.47;;;;;;;1.42;96.22;100762.70;1444286;90;22087;-85
2023/01/22 07:10:21;;;;;;;15.50;9.07;;;;;;;1.44;96.25;100767.81;1452710;90;21930;-84
2023/01/22 07:12:49;;;;;;;16.47;9.27;;;;;;;1.50;95.90;100779.26;1442444;90;21774;-84
2023/01/22 07:15:15;;;;;;;14.60;9.43;;;;;;;1.56;96.52;100786.76;1438378;90;21851;-84
2023/01/22 07:17:42;;;;;;;12.20;9.13;;;;;;;1.69;96.54;100802.13;1442530;90;22020;-85
2023/01/22 07:20:10;;;;;;;16.20;9.83;;;;;;;1.73;95.61;100786.70;1442021;90;21945;-85
2023/01/22 07:22:36;;;;;;;12.10;8.47;;;;;;;1.73;95.61;100786.70;1441609;90;22711;-85
2023/01/22 07:25:02;;;;;;;13.60;8.23;;;;;;;1.74;95.88;100777.09;1451156;90;21906;-85
2023/01/22 07:27:31;;;;;;;14.27;9.17;;;;;;;1.70;95.21;100769.07;1445795;90;21885;-85
2023/01/22 07:29:57;;;;;;;18.30;12.10;;;;;;;1.70;95.21;100769.07;1442044;90;21766;-85
2023/01/22 07:32:24;;;;;;;14.73;8.90;;;;;;;1.77;95.70;100818.22;1447835;90;21996;-82
2023/01/22 07:34:50;;;;;;;12.40;7.97;;;;;;;1.85;95.40;100828.73;1444124;90;21834;-82
2023/01/22 07:37:16;;;;;;;13.97;9.10;;;;;;;1.85;95.40;100828.73;1441971;90;22927;-82
2023/01/22 07:39:43;;;;;;;14.50;9.70;;;;;;;1.96;95.78;100832.91;1448681;90;21855;-83
2023/01/22 07:42:10;;;;;;;11.27;8.07;;;;;;;1.93;95.03;100828.70;1443967;90;21871;-84
2023/01/22 07:44:39;;;;;;;15.97;8.87;;;;;;;1.99;94.82;100837.97;1443016;90;22239;-84
2023/01/22 07:47:05;;;;;;;17.07;9.30;;;;;;;2.02;94.62;100832.58;1449698;90;22151;-84
2023/01/22 07:49:31;;;;;;;12.57;8.07;;;;;;;2.05;94.63;100827.19;1445037;90;22107;-83
2023/01/22 07:51:57;;;;;;;13.27;9.67;;;;;;;2.10;94.74;100839.98;1447563;90;22069;-84
2023/01/22 07:54:23;;;;;;;12.77;8.83;;;;;;;2.13;94.82;100835.86;1447748;90;22070;-83
2023/01/22 07:56:51;;;;;;;11.77;7.57;;;;;;;2.21;95.07;100835.86;1441386;90;23053;-83
2023/01/22 07:59:17;;;;;;;15.47;9.63;;;;;;;2.30;93.66;100849.34;1442236;90;22119;-82
2023/01/22 08:01:44;;;;;;;13.87;9.63;;;;;;;2.37;93.49;100853.31;1447669;90;22104;-84
2023/01/22 08:04:10;;;;;;;14.17;9.57;;;;;;;2.37;93.49;100853.31;1434635;90;22341;-86
2023/01/22 08:06:36;;;;;;;14.83;9.30;;;;;;;2.42;93.34;100864.36;1434797;90;22994;-83
2023/01/22 08:09:05;;;;;;;16.20;10.40;;;;;;;2.42;93.18;100874.81;1440736;90;22174;-85
2023/01/22 08:11:31;;;;;;;14.97;9.37;;;;;;;2.45;93.64;100881.17;1433658;90;22049;-85
2023/01/22 08:13:57;;;;;;;10.63;8.20;;;;;;;2.52;94.10;100885.58;1444418;90;22027;-85
2023/01/22 08:16:24;;;;;;;14.40;8.10;;;;;;;2.57;94.06;100889.62;1447951;90;22201;-85
2023/01/22 08:18:50;;;;;;;14.73;8.67;;;;;;;2.66;93.66;100887.80;1440659;90;23178;-85
2023/01/22 08:21:16;;;;;;;16.23;8.37;;;;;;;2.66;93.66;100887.80;1449236;90;21496;-83
2023/01/22 08:23:42;;;;;;;12.23;8.40;;;;;;;2.77;93.11;100891.13;1444307;90;22217;-83
2023/01/22 08:26:08;;;;;;;17.67;10.47;;;;;;;2.82;92.18;100894.78;1448386;90;22025;-82
2023/01/22 08:28:37;;;;;;;15.67;10.43;;;;;;;2.88;91.97;100897.08;1441500;90;23042;-85
2023/01/22 08:31:04;;;;;;;14.03;8.63;;;;;;;2.94;91.48;100896.72;1445835;90;23018;-87
2023/01/22 08:33:32;;;;;;;18.57;11.10;;;;;;;3.03;91.94;100905.34;1449828;90;22412;-86
2023/01/22 08:35:58;;;;;;;15.27;9.47;;;;;;;3.07;91.48;100902.19;1440564;90;21326;-85
2023/01/22 08:38:25;;;;;;;15.20;10.30;;;;;;;3.05;89.57;100902.19;1447963;90;22332;-85
2023/01/22 08:40:52;;;;;;;12.23;9.17;;;;;;;3.17;90.32;100913.71;1449020;90;21436;-84
2023/01/22 08:43:18;;;;;;;19.53;11.93;;;;;;;3.17;90.32;100913.71;1450609;90;21429;-80
2023/01/22 08:45:48;;;;;;;18.87;11.67;;;;;;;3.29;90.70;100920.01;1453096;90;21415;-82
2023/01/22 08:48:14;;;;;;;13.33;9.97;;;;;;;3.38;89.25;100921.61;1446149;90;21282;-80
2023/01/22 08:50:41;;;;;;;17.67;11.03;;;;;;;3.49;86.85;100927.53;1443645;90;21510;-83
2023/01/22 08:53:07;;;;;;;15.67;9.70;;;;;;;3.73;89.18;100925.70;1446595;90;21471;-83
2023/01/22 08:55:33;;;;;;;14.33;9.17;;;;;;;3.75;86.06;100929.08;1447569;90;21326;-83
2023/01/22 08:57:59;;;;;;;12.97;9.07;;;;;;;3.96;87.69;100938.25;1438925;90;21504;-83
2023/01/22 09:00:26;;;;;;;15.30;11.00;;;;;;;4.04;86.53;100947.80;1442332;90;21510;-82
2023/01/22 09:02:58;;;;;;;21.93;14.63;;;;;;;4.14;87.04;100946.77;1446744;90;21550;-82
2023/01/22 09:05:26;;;;;;;17.93;10.87;;;;;;;4.18;85.90;100955.30;1449195;90;22310;-83
2023/01/22 09:07:52;;;;;;;17.90;11.57;;;;;;;4.04;83.25;100946.50;1452175;90;21356;-83
2023/01/22 09:10:19;;;;;;;18.47;9.67;;;;;;;3.87;84.63;100947.14;1449487;90;21422;-86
2023/01/22 09:12:45;;;;;;;13.77;9.17;;;;;;;3.84;85.18;100947.69;1447178;90;21333;-88
2023/01/22 09:15:11;;;;;;;16.70;11.60;;;;;;;3.86;86.17;100952.02;1450646;90;21459;-83
2023/01/22 09:17:37;;;;;;;17.60;11.87;;;;;;;3.90;86.54;100938.63;1444609;90;22442;-84
2023/01/22 09:20:05;;;;;;;20.57;13.67;;;;;;;3.91;86.39;100935.06;1450656;90;22369;-82
2023/01/22 09:22:31;;;;;;;30.17;18.07;;;;;;;3.91;85.85;100940.30;1453098;90;21437;-85
2023/01/22 09:24:58;;;;;;;15.50;10.73;;;;;;;3.97;86.34;100942.58;1444043;90;22318;-84
2023/01/22 09:27:24;;;;;;;47.80;28.40;;;;;;;3.99;85.97;100938.06;1445155;90;21519;-82
2023/01/22 09:29:51;;;;;;;29.70;18.27;;;;;;;4.20;87.52;100929.83;1449785;90;21540;-84
2023/01/22 09:32:17;;;;;;;16.63;11.17;;;;;;;4.41;87.29;100933.77;1445290;90;21363;-83
2023/01/22 09:34:43;;;;;;;14.67;9.90;;;;;;;4.48;83.35;100945.53;1447274;90;21430;-82
2023/01/22 09:37:12;;;;;;;13.33;8.87;;;;;;;4.61;82.94;100950.03;1447153;90;21407;-82
2023/01/22 09:39:38;;;;;;;20.33;14.47;;;;;;;4.69;82.71;100951.67;1444140;90;21444;-82
2023/01/22 09:42:08;;;;;;;12.03;8.50;;;;;;;4.87;83.27;100964.95;1442579;90;21392;-84
2023/01/22 09:44:42;;;;;;;15.13;10.60;;;;;;;4.88;79.73;100960.54;1441573;90;21571;-83
2023/01/22 09:47:35;;;;;;;33.60;22.70;;;;;;;5.30;82.69;100956.92;1448178;90;21488;-83
2023/01/22 09:50:29;;;;;;;18.00;13.50;;;;;;;6.28;80.83;100957.36;1447808;90;22384;-84
2023/01/22 09:53:00;;;;;;;26.50;18.43;;;;;;;7.29;76.08;100963.72;1446518;90;21437;-85
2023/01/22 09:55:34;;;;;;;29.52;22.80;;;;;;;8.45;75.52;100952.20;1442249;90;21325;-83
2023/01/22 09:58:04;;;;;;;28.53;20.13;;;;;;;9.07;70.74;100954.74;1448011;90;21406;-83
2023/01/22 10:00:56;;;;;;;20.95;16.57;;;;;;;9.59;71.03;100952.25;1446196;90;22215;-82
2023/01/22 10:03:40;;;;;;;11.37;8.83;;;;;;;9.70;63.68;100949.54;1445621;90;21488;-83
2023/01/22 10:06:13;;;;;;;24.57;18.40;;;;;;;9.68;63.53;100952.79;1442410;90;21459;-82
2023/01/22 10:08:50;;;;;;;11.67;9.60;;;;;;;9.95;63.50;100957.53;1522099;90;21142;-82
2023/01/22 10:11:17;;;;;;;15.10;11.40;;;;;;;10.13;65.25;100953.83;1527846;90;22060;-81
2023/01/22 10:13:43;;;;;;;12.77;10.43;;;;;;;10.41;63.22;100954.09;1362076;90;21245;-83
2023/01/22 10:16:11;;;;;;;8.97;7.70;;;;;;;10.92;63.81;100952.63;1449365;90;21518;-84
2023/01/22 10:19:03;;;;;;;10.13;7.87;;;;;;;10.90;62.49;100951.09;1446226;90;21429;-82
2023/01/22 10:21:34;;;;;;;8.43;6.93;;;;;;;10.94;59.21;100945.89;1444078;90;21429;-82
2023/01/22 10:24:00;;;;;;;16.30;12.20;;;;;;;11.22;63.16;100949.05;1442781;90;21466;-81
2023/01/22 10:26:51;;;;;;;15.53;9.37;;;;;;;11.39;63.05;100952.80;1445497;90;21326;-83
2023/01/22 10:29:26;;;;;;;;;;;;;;;11.06;60.81;100956.20;1445892;90;21577;-82
2023/01/22 10:31:57;;;;;;;11.03;8.20;;;;;;;10.42;59.72;100958.44;1444622;89;20514;-82
2023/01/22 10:34:35;;;;;;;15.58;11.35;;;;;;;9.42;61.19;100960.25;1443277;90;21297;-81
2023/01/22 10:37:11;;;;;;;19.43;16.73;;;;;;;9.08;64.36;100964.82;1521745;90;21252;-83
2023/01/22 10:39:46;;;;;;;11.93;8.87;;;;;;;9.37;65.67;100963.75;1369035;90;21281;-82
2023/01/22 10:42:23;;;;;;;10.53;8.60;;;;;;;9.38;65.89;100967.59;1523853;90;21254;-83
2023/01/22 10:45:10;;;;;;;16.20;12.77;;;;;;;9.42;67.05;100970.33;1442565;90;21547;-82
2023/01/22 10:47:36;;;;;;;14.90;10.90;;;;;;;10.04;66.13;100971.78;1447249;90;21604;-81
2023/01/22 10:50:15;;;;;;;23.77;18.23;;;;;;;10.56;64.83;100972.14;1448108;90;21385;-82
2023/01/22 10:52:53;;;;;;;12.97;9.83;;;;;;;10.86;62.13;100965.59;1447143;90;21400;-84
2023/01/22 10:55:25;;;;;;;12.20;10.03;;;;;;;11.23;60.67;100978.54;1443090;90;21452;-83
2023/01/22 10:58:01;;;;;;;12.33;10.43;;;;;;;11.17;61.43;100973.80;1445404;90;21662;-81
2023/01/22 11:00:40;;;;;;;14.10;9.97;;;;;;;11.35;62.71;100978.41;1443349;90;21422;-84
2023/01/22 11:03:23;;;;;;;11.67;9.50;;;;;;;11.46;58.72;100971.64;1444943;90;21663;-83
2023/01/22 11:06:07;;;;;;;11.47;8.87;;;;;;;11.64;61.75;100969.94;1445430;90;21526;-84
2023/01/22 11:08:45;;;;;;;14.37;10.03;;;;;;;11.88;61.49;100965.56;1417010;90;21581;-82
2023/01/22 11:11:16;;;;;;;8.47;6.50;;;;;;;11.95;58.07;100963.16;1439528;90;21494;-82
2023/01/22 11:13:59;;;;;;;11.83;7.70;;;;;;;11.61;57.49;100967.58;1443927;90;22537;-82
2023/01/22 11:16:29;;;;;;;10.23;8.10;;;;;;;11.68;58.60;100972.68;1443458;90;22442;-85
2023/01/22 11:19:12;;;;;;;15.18;10.48;;;;;;;11.87;60.82;100975.80;1445840;90;21495;-83
2023/01/22 11:21:52;;;;;;;15.00;10.43;;;;;;;11.74;58.11;100976.58;1448190;90;21510;-75
2023/01/22 11:24:37;;;;;;;12.43;10.33;;;;;;;11.73;57.32;100978.37;1416769;90;21458;-78
2023/01/22 11:27:21;;;;;;;14.70;10.67;;;;;;;11.63;59.45;100968.78;1521991;90;21371;-79
2023/01/22 11:30:13;;;;;;;26.63;17.03;;;;;;;11.89;60.48;100965.06;1527273;90;21485;-79
2023/01/22 11:33:12;;;;;;;21.40;17.40;;;;;;;11.97;60.07;100965.19;1527787;90;21231;-79
2023/01/22 11:35:44;;;;;;;21.97;16.87;;;;;;;11.93;57.85;100973.07;1527951;90;21194;-79
2023/01/22 11:38:15;;;;;;;15.60;10.57;;;;;;;11.89;59.20;100971.70;1527963;90;21261;-78
2023/01/22 11:40:47;;;;;;;15.83;12.13;;;;;;;11.87;56.74;100969.67;1527771;90;21200;-76